sensor_id;sensor_type;location;lat;lon;timestamp;P1;durP1;ratioP1;P2;durP2;ratioP2
67026;SDS011;53933;52.142;11.738;2022-08-14T00:00:40;10.05;;;7.53;;
67026;SDS011;53933;52.142;11.738;2022-08-14T00:03:07;8.32;;;7.20;;
67026;SDS011;53933;52.142;11.738;2022-08-14T00:05:35;9.70;;;6.90;;
67026;SDS011;53933;52.142;11.738;2022-08-14T00:08:01;9.85;;;7.03;;
67026;SDS011;53933;52.142;11.738;2022-08-14T00:10:28;10.48;;;7.00;;
67026;SDS011;53933;52.142;11.738;2022-08-14T00:12:55;13.98;;;7.25;;
67026;SDS011;53933;52.142;11.738;2022-08-14T00:15:24;8.65;;;7.28;;
67026;SDS011;53933;52.142;11.738;2022-08-14T00:17:54;14.63;;;8.00;;
67026;SDS011;53933;52.142;11.738;2022-08-14T00:20:21;8.02;;;7.22;;
67026;SDS011;53933;52.142;11.738;2022-08-14T00:22:52;8.45;;;7.65;;
67026;SDS011;53933;52.142;11.738;2022-08-14T00:25:19;9.82;;;7.65;;
67026;SDS011;53933;52.142;11.738;2022-08-14T00:27:45;12.52;;;8.88;;
67026;SDS011;53933;52.142;11.738;2022-08-14T00:30:13;10.73;;;7.38;;
67026;SDS011;53933;52.142;11.738;2022-08-14T00:32:40;8.40;;;7.07;;
67026;SDS011;53933;52.142;11.738;2022-08-14T00:35:08;8.48;;;7.45;;
67026;SDS011;53933;52.142;11.738;2022-08-14T00:37:36;7.93;;;7.13;;
67026;SDS011;53933;52.142;11.738;2022-08-14T00:40:06;9.82;;;7.40;;
67026;SDS011;53933;52.142;11.738;2022-08-14T00:42:35;9.48;;;7.43;;
67026;SDS011;53933;52.142;11.738;2022-08-14T00:45:02;8.27;;;7.47;;
67026;SDS011;53933;52.142;11.738;2022-08-14T00:47:29;7.75;;;6.95;;
67026;SDS011;53933;52.142;11.738;2022-08-14T00:49:56;9.63;;;7.13;;
67026;SDS011;53933;52.142;11.738;2022-08-14T00:52:22;13.98;;;7.55;;
67026;SDS011;53933;52.142;11.738;2022-08-14T00:54:50;12.20;;;7.13;;
67026;SDS011;53933;52.142;11.738;2022-08-14T00:57:20;11.10;;;7.22;;
67026;SDS011;53933;52.142;11.738;2022-08-14T00:59:47;8.23;;;6.95;;
67026;SDS011;53933;52.142;11.738;2022-08-14T01:02:14;9.77;;;7.20;;
67026;SDS011;53933;52.142;11.738;2022-08-14T01:04:43;10.38;;;7.70;;
67026;SDS011;53933;52.142;11.738;2022-08-14T01:07:10;11.43;;;7.15;;
67026;SDS011;53933;52.142;11.738;2022-08-14T01:09:45;9.90;;;7.40;;
67026;SDS011;53933;52.142;11.738;2022-08-14T01:12:13;9.77;;;7.72;;
67026;SDS011;53933;52.142;11.738;2022-08-14T01:14:42;9.90;;;7.80;;
67026;SDS011;53933;52.142;11.738;2022-08-14T01:17:09;10.25;;;7.30;;
67026;SDS011;53933;52.142;11.738;2022-08-14T01:19:36;11.63;;;7.47;;
67026;SDS011;53933;52.142;11.738;2022-08-14T01:22:22;10.10;;;7.75;;
67026;SDS011;53933;52.142;11.738;2022-08-14T01:24:48;10.10;;;7.45;;
67026;SDS011;53933;52.142;11.738;2022-08-14T01:27:16;8.40;;;6.53;;
67026;SDS011;53933;52.142;11.738;2022-08-14T01:29:43;8.27;;;7.47;;
67026;SDS011;53933;52.142;11.738;2022-08-14T01:32:11;9.68;;;6.95;;
67026;SDS011;53933;52.142;11.738;2022-08-14T01:34:38;7.95;;;7.05;;
67026;SDS011;53933;52.142;11.738;2022-08-14T01:37:05;11.10;;;7.25;;
67026;SDS011;53933;52.142;11.738;2022-08-14T01:39:33;10.27;;;7.40;;
67026;SDS011;53933;52.142;11.738;2022-08-14T01:42:00;9.30;;;6.95;;
67026;SDS011;53933;52.142;11.738;2022-08-14T01:44:28;9.15;;;7.45;;
67026;SDS011;53933;52.142;11.738;2022-08-14T01:46:55;10.50;;;8.20;;
67026;SDS011;53933;52.142;11.738;2022-08-14T01:49:23;7.60;;;6.82;;
67026;SDS011;53933;52.142;11.738;2022-08-14T01:51:51;9.05;;;7.63;;
67026;SDS011;53933;52.142;11.738;2022-08-14T01:54:21;8.32;;;7.13;;
67026;SDS011;53933;52.142;11.738;2022-08-14T01:56:51;14.60;;;7.60;;
67026;SDS011;53933;52.142;11.738;2022-08-14T01:59:21;8.43;;;7.22;;
67026;SDS011;53933;52.142;11.738;2022-08-14T02:01:53;8.50;;;7.45;;
67026;SDS011;53933;52.142;11.738;2022-08-14T02:04:22;9.40;;;7.70;;
67026;SDS011;53933;52.142;11.738;2022-08-14T02:06:51;8.77;;;7.32;;
67026;SDS011;53933;52.142;11.738;2022-08-14T02:09:18;9.35;;;7.43;;
67026;SDS011;53933;52.142;11.738;2022-08-14T02:11:46;10.52;;;7.85;;
67026;SDS011;53933;52.142;11.738;2022-08-14T02:14:16;10.63;;;7.47;;
67026;SDS011;53933;52.142;11.738;2022-08-14T02:16:43;15.65;;;7.70;;
67026;SDS011;53933;52.142;11.738;2022-08-14T02:19:12;12.60;;;7.35;;
67026;SDS011;53933;52.142;11.738;2022-08-14T02:21:41;7.90;;;7.10;;
67026;SDS011;53933;52.142;11.738;2022-08-14T02:24:09;9.35;;;7.45;;
67026;SDS011;53933;52.142;11.738;2022-08-14T02:26:37;11.40;;;7.50;;
67026;SDS011;53933;52.142;11.738;2022-08-14T02:29:06;12.02;;;8.40;;
67026;SDS011;53933;52.142;11.738;2022-08-14T02:31:36;8.68;;;7.53;;
67026;SDS011;53933;52.142;11.738;2022-08-14T02:34:05;9.73;;;7.80;;
67026;SDS011;53933;52.142;11.738;2022-08-14T02:36:34;13.38;;;8.00;;
67026;SDS011;53933;52.142;11.738;2022-08-14T02:39:01;13.55;;;7.53;;
67026;SDS011;53933;52.142;11.738;2022-08-14T02:41:28;8.45;;;7.35;;
67026;SDS011;53933;52.142;11.738;2022-08-14T02:43:56;8.73;;;7.30;;
67026;SDS011;53933;52.142;11.738;2022-08-14T02:46:22;11.32;;;7.47;;
67026;SDS011;53933;52.142;11.738;2022-08-14T02:48:51;8.57;;;7.43;;
67026;SDS011;53933;52.142;11.738;2022-08-14T02:51:17;8.38;;;7.22;;
67026;SDS011;53933;52.142;11.738;2022-08-14T02:53:44;12.25;;;7.90;;
67026;SDS011;53933;52.142;11.738;2022-08-14T02:56:12;11.07;;;7.88;;
67026;SDS011;53933;52.142;11.738;2022-08-14T02:58:42;11.15;;;7.65;;
67026;SDS011;53933;52.142;11.738;2022-08-14T03:01:11;10.52;;;8.48;;
67026;SDS011;53933;52.142;11.738;2022-08-14T03:03:39;10.60;;;8.55;;
67026;SDS011;53933;52.142;11.738;2022-08-14T03:06:08;9.20;;;7.75;;
67026;SDS011;53933;52.142;11.738;2022-08-14T03:08:36;11.02;;;8.30;;
67026;SDS011;53933;52.142;11.738;2022-08-14T03:11:04;10.82;;;7.30;;
67026;SDS011;53933;52.142;11.738;2022-08-14T03:13:33;11.73;;;8.38;;
67026;SDS011;53933;52.142;11.738;2022-08-14T03:16:01;10.75;;;8.00;;
67026;SDS011;53933;52.142;11.738;2022-08-14T03:18:29;11.45;;;8.63;;
67026;SDS011;53933;52.142;11.738;2022-08-14T03:20:56;12.23;;;8.15;;
67026;SDS011;53933;52.142;11.738;2022-08-14T03:23:24;9.52;;;7.72;;
67026;SDS011;53933;52.142;11.738;2022-08-14T03:25:51;10.85;;;8.05;;
67026;SDS011;53933;52.142;11.738;2022-08-14T03:28:18;10.68;;;7.97;;
67026;SDS011;53933;52.142;11.738;2022-08-14T03:30:49;10.07;;;8.25;;
67026;SDS011;53933;52.142;11.738;2022-08-14T03:33:15;9.35;;;8.40;;
67026;SDS011;53933;52.142;11.738;2022-08-14T03:35:44;8.88;;;7.93;;
67026;SDS011;53933;52.142;11.738;2022-08-14T03:38:11;9.73;;;7.70;;
67026;SDS011;53933;52.142;11.738;2022-08-14T03:40:43;10.00;;;7.95;;
67026;SDS011;53933;52.142;11.738;2022-08-14T03:43:11;11.07;;;8.82;;
67026;SDS011;53933;52.142;11.738;2022-08-14T03:45:39;14.18;;;9.27;;
67026;SDS011;53933;52.142;11.738;2022-08-14T03:48:09;11.32;;;9.00;;
67026;SDS011;53933;52.142;11.738;2022-08-14T03:50:39;12.65;;;9.10;;
67026;SDS011;53933;52.142;11.738;2022-08-14T03:53:06;9.85;;;8.32;;
67026;SDS011;53933;52.142;11.738;2022-08-14T03:55:33;13.32;;;8.60;;
67026;SDS011;53933;52.142;11.738;2022-08-14T03:58:01;9.73;;;8.38;;
67026;SDS011;53933;52.142;11.738;2022-08-14T04:00:28;11.38;;;8.73;;
67026;SDS011;53933;52.142;11.738;2022-08-14T04:02:55;12.38;;;8.43;;
67026;SDS011;53933;52.142;11.738;2022-08-14T04:05:21;12.32;;;8.43;;
67026;SDS011;53933;52.142;11.738;2022-08-14T04:07:49;9.70;;;8.70;;
67026;SDS011;53933;52.142;11.738;2022-08-14T04:10:16;11.68;;;9.32;;
67026;SDS011;53933;52.142;11.738;2022-08-14T04:12:43;9.82;;;8.55;;
67026;SDS011;53933;52.142;11.738;2022-08-14T04:15:11;12.00;;;8.70;;
67026;SDS011;53933;52.142;11.738;2022-08-14T04:17:39;10.73;;;8.18;;
67026;SDS011;53933;52.142;11.738;2022-08-14T04:20:07;13.20;;;8.77;;
67026;SDS011;53933;52.142;11.738;2022-08-14T04:22:34;9.30;;;8.00;;
67026;SDS011;53933;52.142;11.738;2022-08-14T04:25:02;14.88;;;8.27;;
67026;SDS011;53933;52.142;11.738;2022-08-14T04:27:29;14.70;;;8.88;;
67026;SDS011;53933;52.142;11.738;2022-08-14T04:29:56;12.15;;;9.10;;
67026;SDS011;53933;52.142;11.738;2022-08-14T04:32:24;9.95;;;8.50;;
67026;SDS011;53933;52.142;11.738;2022-08-14T04:34:53;10.30;;;7.88;;
67026;SDS011;53933;52.142;11.738;2022-08-14T04:37:22;12.02;;;9.25;;
67026;SDS011;53933;52.142;11.738;2022-08-14T04:40:07;12.23;;;9.57;;
67026;SDS011;53933;52.142;11.738;2022-08-14T04:42:52;10.02;;;8.98;;
67026;SDS011;53933;52.142;11.738;2022-08-14T04:45:37;13.70;;;9.60;;
67026;SDS011;53933;52.142;11.738;2022-08-14T04:48:07;11.75;;;9.13;;
67026;SDS011;53933;52.142;11.738;2022-08-14T04:50:38;11.98;;;9.85;;
67026;SDS011;53933;52.142;11.738;2022-08-14T04:53:06;15.48;;;10.32;;
67026;SDS011;53933;52.142;11.738;2022-08-14T04:55:34;11.52;;;10.32;;
67026;SDS011;53933;52.142;11.738;2022-08-14T04:58:02;12.05;;;10.38;;
67026;SDS011;53933;52.142;11.738;2022-08-14T05:00:30;12.55;;;9.90;;
67026;SDS011;53933;52.142;11.738;2022-08-14T05:02:57;11.95;;;9.95;;
67026;SDS011;53933;52.142;11.738;2022-08-14T05:05:28;14.20;;;9.40;;
67026;SDS011;53933;52.142;11.738;2022-08-14T05:07:55;13.43;;;9.35;;
67026;SDS011;53933;52.142;11.738;2022-08-14T05:10:29;10.65;;;9.45;;
67026;SDS011;53933;52.142;11.738;2022-08-14T05:12:56;15.80;;;10.27;;
67026;SDS011;53933;52.142;11.738;2022-08-14T05:15:23;13.38;;;10.43;;
67026;SDS011;53933;52.142;11.738;2022-08-14T05:17:53;17.27;;;10.70;;
67026;SDS011;53933;52.142;11.738;2022-08-14T05:20:20;13.23;;;10.63;;
67026;SDS011;53933;52.142;11.738;2022-08-14T05:22:47;12.10;;;10.50;;
67026;SDS011;53933;52.142;11.738;2022-08-14T05:25:14;12.40;;;9.65;;
67026;SDS011;53933;52.142;11.738;2022-08-14T05:27:41;16.77;;;11.02;;
67026;SDS011;53933;52.142;11.738;2022-08-14T05:30:09;11.77;;;9.82;;
67026;SDS011;53933;52.142;11.738;2022-08-14T05:32:36;16.60;;;10.38;;
67026;SDS011;53933;52.142;11.738;2022-08-14T05:35:03;10.93;;;9.82;;
67026;SDS011;53933;52.142;11.738;2022-08-14T05:37:30;11.35;;;10.15;;
67026;SDS011;53933;52.142;11.738;2022-08-14T05:39:58;11.98;;;9.85;;
67026;SDS011;53933;52.142;11.738;2022-08-14T05:42:25;11.90;;;9.88;;
67026;SDS011;53933;52.142;11.738;2022-08-14T05:44:53;15.77;;;9.95;;
67026;SDS011;53933;52.142;11.738;2022-08-14T05:47:20;13.25;;;10.48;;
67026;SDS011;53933;52.142;11.738;2022-08-14T05:49:46;14.70;;;10.52;;
67026;SDS011;53933;52.142;11.738;2022-08-14T05:52:13;15.32;;;10.48;;
67026;SDS011;53933;52.142;11.738;2022-08-14T05:54:39;14.32;;;10.80;;
67026;SDS011;53933;52.142;11.738;2022-08-14T05:57:07;14.30;;;10.75;;
67026;SDS011;53933;52.142;11.738;2022-08-14T05:59:34;14.27;;;10.45;;
67026;SDS011;53933;52.142;11.738;2022-08-14T06:02:01;12.85;;;10.52;;
67026;SDS011;53933;52.142;11.738;2022-08-14T06:04:27;12.75;;;10.40;;
67026;SDS011;53933;52.142;11.738;2022-08-14T06:06:54;14.45;;;9.93;;
67026;SDS011;53933;52.142;11.738;2022-08-14T06:09:20;14.68;;;10.15;;
67026;SDS011;53933;52.142;11.738;2022-08-14T06:11:47;12.13;;;10.15;;
67026;SDS011;53933;52.142;11.738;2022-08-14T06:14:15;11.75;;;10.45;;
67026;SDS011;53933;52.142;11.738;2022-08-14T06:16:42;14.05;;;10.75;;
67026;SDS011;53933;52.142;11.738;2022-08-14T06:19:11;12.88;;;9.93;;
67026;SDS011;53933;52.142;11.738;2022-08-14T06:21:37;13.38;;;10.43;;
67026;SDS011;53933;52.142;11.738;2022-08-14T06:24:04;11.90;;;9.45;;
67026;SDS011;53933;52.142;11.738;2022-08-14T06:26:31;14.57;;;11.32;;
67026;SDS011;53933;52.142;11.738;2022-08-14T06:28:58;15.20;;;11.30;;
67026;SDS011;53933;52.142;11.738;2022-08-14T06:31:26;12.95;;;11.25;;
67026;SDS011;53933;52.142;11.738;2022-08-14T06:33:53;17.65;;;11.13;;
67026;SDS011;53933;52.142;11.738;2022-08-14T06:36:20;14.40;;;10.82;;
67026;SDS011;53933;52.142;11.738;2022-08-14T06:38:46;15.05;;;11.20;;
67026;SDS011;53933;52.142;11.738;2022-08-14T06:41:15;14.10;;;11.13;;
67026;SDS011;53933;52.142;11.738;2022-08-14T06:43:42;12.70;;;10.50;;
67026;SDS011;53933;52.142;11.738;2022-08-14T06:46:08;13.15;;;10.10;;
67026;SDS011;53933;52.142;11.738;2022-08-14T06:48:37;12.63;;;11.27;;
67026;SDS011;53933;52.142;11.738;2022-08-14T06:51:03;12.95;;;11.60;;
67026;SDS011;53933;52.142;11.738;2022-08-14T06:53:30;15.43;;;10.68;;
67026;SDS011;53933;52.142;11.738;2022-08-14T06:55:57;15.48;;;11.25;;
67026;SDS011;53933;52.142;11.738;2022-08-14T06:58:24;14.13;;;11.60;;
67026;SDS011;53933;52.142;11.738;2022-08-14T07:00:50;13.05;;;11.40;;
67026;SDS011;53933;52.142;11.738;2022-08-14T07:03:36;13.07;;;11.77;;
67026;SDS011;53933;52.142;11.738;2022-08-14T07:06:20;14.25;;;11.73;;
67026;SDS011;53933;52.142;11.738;2022-08-14T07:08:47;14.75;;;12.07;;
67026;SDS011;53933;52.142;11.738;2022-08-14T07:11:15;14.70;;;11.60;;
67026;SDS011;53933;52.142;11.738;2022-08-14T07:13:42;14.50;;;10.52;;
67026;SDS011;53933;52.142;11.738;2022-08-14T07:16:08;13.88;;;12.43;;
67026;SDS011;53933;52.142;11.738;2022-08-14T07:18:38;13.15;;;10.70;;
67026;SDS011;53933;52.142;11.738;2022-08-14T07:21:06;13.68;;;10.63;;
67026;SDS011;53933;52.142;11.738;2022-08-14T07:23:34;12.98;;;10.85;;
67026;SDS011;53933;52.142;11.738;2022-08-14T07:26:01;10.63;;;8.68;;
67026;SDS011;53933;52.142;11.738;2022-08-14T07:28:31;12.45;;;11.05;;
67026;SDS011;53933;52.142;11.738;2022-08-14T07:31:00;13.27;;;10.00;;
67026;SDS011;53933;52.142;11.738;2022-08-14T07:33:29;10.82;;;9.65;;
67026;SDS011;53933;52.142;11.738;2022-08-14T07:35:59;9.70;;;8.70;;
67026;SDS011;53933;52.142;11.738;2022-08-14T07:38:27;10.00;;;9.00;;
67026;SDS011;53933;52.142;11.738;2022-08-14T07:40:54;9.20;;;8.30;;
67026;SDS011;53933;52.142;11.738;2022-08-14T07:43:23;10.73;;;8.73;;
67026;SDS011;53933;52.142;11.738;2022-08-14T07:45:51;9.48;;;8.25;;
67026;SDS011;53933;52.142;11.738;2022-08-14T07:48:17;9.23;;;8.32;;
67026;SDS011;53933;52.142;11.738;2022-08-14T07:50:44;11.10;;;9.23;;
67026;SDS011;53933;52.142;11.738;2022-08-14T07:53:16;9.27;;;8.05;;
67026;SDS011;53933;52.142;11.738;2022-08-14T07:55:43;10.07;;;9.02;;
67026;SDS011;53933;52.142;11.738;2022-08-14T07:58:10;9.10;;;8.20;;
67026;SDS011;53933;52.142;11.738;2022-08-14T08:00:37;9.75;;;8.73;;
67026;SDS011;53933;52.142;11.738;2022-08-14T08:03:04;10.57;;;8.95;;
67026;SDS011;53933;52.142;11.738;2022-08-14T08:05:34;8.98;;;8.18;;
67026;SDS011;53933;52.142;11.738;2022-08-14T08:08:02;10.35;;;8.57;;
67026;SDS011;53933;52.142;11.738;2022-08-14T08:10:30;12.23;;;9.23;;
67026;SDS011;53933;52.142;11.738;2022-08-14T08:12:58;9.25;;;8.35;;
67026;SDS011;53933;52.142;11.738;2022-08-14T08:15:27;9.80;;;8.85;;
67026;SDS011;53933;52.142;11.738;2022-08-14T08:17:57;10.63;;;8.05;;
67026;SDS011;53933;52.142;11.738;2022-08-14T08:20:24;9.27;;;8.32;;
67026;SDS011;53933;52.142;11.738;2022-08-14T08:22:52;10.30;;;9.25;;
67026;SDS011;53933;52.142;11.738;2022-08-14T08:25:20;11.27;;;9.18;;
67026;SDS011;53933;52.142;11.738;2022-08-14T08:27:55;8.98;;;8.02;;
67026;SDS011;53933;52.142;11.738;2022-08-14T08:30:22;10.52;;;8.50;;
67026;SDS011;53933;52.142;11.738;2022-08-14T08:32:50;9.88;;;8.65;;
67026;SDS011;53933;52.142;11.738;2022-08-14T08:35:19;9.55;;;8.27;;
67026;SDS011;53933;52.142;11.738;2022-08-14T08:37:47;11.43;;;9.10;;
67026;SDS011;53933;52.142;11.738;2022-08-14T08:40:21;9.50;;;8.43;;
67026;SDS011;53933;52.142;11.738;2022-08-14T08:42:49;13.90;;;8.67;;
67026;SDS011;53933;52.142;11.738;2022-08-14T08:45:17;9.80;;;8.80;;
67026;SDS011;53933;52.142;11.738;2022-08-14T08:47:45;10.15;;;9.05;;
67026;SDS011;53933;52.142;11.738;2022-08-14T08:50:16;10.90;;;8.38;;
67026;SDS011;53933;52.142;11.738;2022-08-14T08:52:52;9.57;;;8.55;;
67026;SDS011;53933;52.142;11.738;2022-08-14T08:55:29;10.38;;;8.57;;
67026;SDS011;53933;52.142;11.738;2022-08-14T08:57:59;9.48;;;8.48;;
67026;SDS011;53933;52.142;11.738;2022-08-14T09:00:30;11.73;;;8.82;;
67026;SDS011;53933;52.142;11.738;2022-08-14T09:02:59;9.55;;;8.57;;
67026;SDS011;53933;52.142;11.738;2022-08-14T09:05:29;8.40;;;7.60;;
67026;SDS011;53933;52.142;11.738;2022-08-14T09:08:10;11.82;;;9.10;;
67026;SDS011;53933;52.142;11.738;2022-08-14T09:10:39;10.75;;;9.02;;
67026;SDS011;53933;52.142;11.738;2022-08-14T09:13:05;9.70;;;8.48;;
67026;SDS011;53933;52.142;11.738;2022-08-14T09:15:34;10.93;;;7.70;;
67026;SDS011;53933;52.142;11.738;2022-08-14T09:18:02;11.35;;;8.45;;
67026;SDS011;53933;52.142;11.738;2022-08-14T09:20:32;10.68;;;8.50;;
67026;SDS011;53933;52.142;11.738;2022-08-14T09:22:59;9.82;;;8.52;;
67026;SDS011;53933;52.142;11.738;2022-08-14T09:25:26;10.63;;;8.82;;
67026;SDS011;53933;52.142;11.738;2022-08-14T09:27:53;10.27;;;8.90;;
67026;SDS011;53933;52.142;11.738;2022-08-14T09:30:20;12.02;;;9.00;;
67026;SDS011;53933;52.142;11.738;2022-08-14T09:32:51;9.43;;;8.40;;
67026;SDS011;53933;52.142;11.738;2022-08-14T09:35:29;11.85;;;9.25;;
67026;SDS011;53933;52.142;11.738;2022-08-14T09:38:06;10.38;;;8.65;;
67026;SDS011;53933;52.142;11.738;2022-08-14T09:40:44;9.30;;;8.18;;
67026;SDS011;53933;52.142;11.738;2022-08-14T09:43:18;9.95;;;8.40;;
67026;SDS011;53933;52.142;11.738;2022-08-14T09:45:53;9.18;;;8.23;;
67026;SDS011;53933;52.142;11.738;2022-08-14T09:48:25;9.70;;;8.25;;
67026;SDS011;53933;52.142;11.738;2022-08-14T09:50:52;9.35;;;8.45;;
67026;SDS011;53933;52.142;11.738;2022-08-14T09:53:32;9.98;;;8.80;;
67026;SDS011;53933;52.142;11.738;2022-08-14T09:56:01;10.15;;;8.63;;
67026;SDS011;53933;52.142;11.738;2022-08-14T09:58:36;12.60;;;8.63;;
67026;SDS011;53933;52.142;11.738;2022-08-14T10:01:08;9.85;;;8.30;;
67026;SDS011;53933;52.142;11.738;2022-08-14T10:03:46;11.00;;;8.48;;
67026;SDS011;53933;52.142;11.738;2022-08-14T10:06:14;11.93;;;8.40;;
67026;SDS011;53933;52.142;11.738;2022-08-14T10:08:43;10.13;;;8.07;;
67026;SDS011;53933;52.142;11.738;2022-08-14T10:11:16;9.43;;;8.48;;
67026;SDS011;53933;52.142;11.738;2022-08-14T10:13:45;9.27;;;8.40;;
67026;SDS011;53933;52.142;11.738;2022-08-14T10:16:13;9.20;;;7.78;;
67026;SDS011;53933;52.142;11.738;2022-08-14T10:18:41;9.68;;;8.55;;
67026;SDS011;53933;52.142;11.738;2022-08-14T10:21:09;11.68;;;8.13;;
67026;SDS011;53933;52.142;11.738;2022-08-14T10:23:43;9.25;;;8.32;;
67026;SDS011;53933;52.142;11.738;2022-08-14T10:26:15;10.25;;;8.75;;
67026;SDS011;53933;52.142;11.738;2022-08-14T10:28:44;9.68;;;7.85;;
67026;SDS011;53933;52.142;11.738;2022-08-14T10:31:18;11.52;;;8.43;;
67026;SDS011;53933;52.142;11.738;2022-08-14T10:33:57;9.23;;;8.27;;
67026;SDS011;53933;52.142;11.738;2022-08-14T10:36:26;12.50;;;8.82;;
67026;SDS011;53933;52.142;11.738;2022-08-14T10:38:57;10.00;;;8.98;;
67026;SDS011;53933;52.142;11.738;2022-08-14T10:41:33;10.35;;;8.68;;
67026;SDS011;53933;52.142;11.738;2022-08-14T10:44:06;9.35;;;8.32;;
67026;SDS011;53933;52.142;11.738;2022-08-14T10:46:41;8.82;;;7.93;;
67026;SDS011;53933;52.142;11.738;2022-08-14T10:49:18;10.32;;;8.55;;
67026;SDS011;53933;52.142;11.738;2022-08-14T10:51:55;9.70;;;8.70;;
67026;SDS011;53933;52.142;11.738;2022-08-14T10:54:30;13.13;;;8.38;;
67026;SDS011;53933;52.142;11.738;2022-08-14T10:57:12;12.60;;;8.52;;
67026;SDS011;53933;52.142;11.738;2022-08-14T10:59:43;10.35;;;8.32;;
67026;SDS011;53933;52.142;11.738;2022-08-14T11:02:22;9.65;;;8.65;;
67026;SDS011;53933;52.142;11.738;2022-08-14T11:04:58;8.70;;;7.90;;
67026;SDS011;53933;52.142;11.738;2022-08-14T11:07:26;8.90;;;8.00;;
67026;SDS011;53933;52.142;11.738;2022-08-14T11:09:53;9.52;;;8.52;;
67026;SDS011;53933;52.142;11.738;2022-08-14T11:12:21;10.55;;;8.50;;
67026;SDS011;53933;52.142;11.738;2022-08-14T11:14:49;10.10;;;8.48;;
67026;SDS011;53933;52.142;11.738;2022-08-14T11:17:21;8.38;;;7.57;;
67026;SDS011;53933;52.142;11.738;2022-08-14T11:19:50;8.52;;;7.68;;
67026;SDS011;53933;52.142;11.738;2022-08-14T11:22:21;9.27;;;8.20;;
67026;SDS011;53933;52.142;11.738;2022-08-14T11:24:52;10.25;;;7.80;;
67026;SDS011;53933;52.142;11.738;2022-08-14T11:27:20;9.18;;;8.10;;
67026;SDS011;53933;52.142;11.738;2022-08-14T11:29:50;8.50;;;7.60;;
67026;SDS011;53933;52.142;11.738;2022-08-14T11:32:18;10.52;;;7.63;;
67026;SDS011;53933;52.142;11.738;2022-08-14T11:34:45;11.57;;;7.75;;
67026;SDS011;53933;52.142;11.738;2022-08-14T11:37:11;10.43;;;7.90;;
67026;SDS011;53933;52.142;11.738;2022-08-14T11:39:40;8.55;;;7.57;;
67026;SDS011;53933;52.142;11.738;2022-08-14T11:42:07;7.95;;;7.15;;
67026;SDS011;53933;52.142;11.738;2022-08-14T11:44:45;8.23;;;7.10;;
67026;SDS011;53933;52.142;11.738;2022-08-14T11:47:13;7.85;;;7.00;;
67026;SDS011;53933;52.142;11.738;2022-08-14T11:49:43;8.48;;;7.60;;
67026;SDS011;53933;52.142;11.738;2022-08-14T11:52:10;8.95;;;7.18;;
67026;SDS011;53933;52.142;11.738;2022-08-14T11:54:37;8.85;;;6.90;;
67026;SDS011;53933;52.142;11.738;2022-08-14T11:57:06;7.82;;;7.13;;
67026;SDS011;53933;52.142;11.738;2022-08-14T11:59:39;9.23;;;7.65;;
67026;SDS011;53933;52.142;11.738;2022-08-14T12:02:10;9.25;;;7.40;;
67026;SDS011;53933;52.142;11.738;2022-08-14T12:04:47;8.70;;;7.80;;
67026;SDS011;53933;52.142;11.738;2022-08-14T12:07:14;7.75;;;6.95;;
67026;SDS011;53933;52.142;11.738;2022-08-14T12:09:41;7.75;;;7.05;;
67026;SDS011;53933;52.142;11.738;2022-08-14T12:12:14;7.97;;;7.28;;
67026;SDS011;53933;52.142;11.738;2022-08-14T12:14:49;9.43;;;7.28;;
67026;SDS011;53933;52.142;11.738;2022-08-14T12:17:20;8.68;;;7.82;;
67026;SDS011;53933;52.142;11.738;2022-08-14T12:19:49;9.43;;;7.80;;
67026;SDS011;53933;52.142;11.738;2022-08-14T12:22:18;7.68;;;6.97;;
67026;SDS011;53933;52.142;11.738;2022-08-14T12:24:56;9.30;;;7.15;;
67026;SDS011;53933;52.142;11.738;2022-08-14T12:27:34;7.85;;;7.10;;
67026;SDS011;53933;52.142;11.738;2022-08-14T12:30:02;8.68;;;7.00;;
67026;SDS011;53933;52.142;11.738;2022-08-14T12:32:37;8.52;;;7.72;;
67026;SDS011;53933;52.142;11.738;2022-08-14T12:35:04;8.77;;;7.97;;
67026;SDS011;53933;52.142;11.738;2022-08-14T12:37:34;8.55;;;7.75;;
67026;SDS011;53933;52.142;11.738;2022-08-14T12:40:11;9.95;;;7.50;;
67026;SDS011;53933;52.142;11.738;2022-08-14T12:42:40;9.23;;;8.32;;
67026;SDS011;53933;52.142;11.738;2022-08-14T12:45:08;10.80;;;7.80;;
67026;SDS011;53933;52.142;11.738;2022-08-14T12:47:37;9.50;;;7.60;;
67026;SDS011;53933;52.142;11.738;2022-08-14T12:50:05;8.38;;;7.57;;
67026;SDS011;53933;52.142;11.738;2022-08-14T12:52:33;8.30;;;7.50;;
67026;SDS011;53933;52.142;11.738;2022-08-14T12:55:04;9.27;;;8.00;;
67026;SDS011;53933;52.142;11.738;2022-08-14T12:57:34;11.00;;;7.88;;
67026;SDS011;53933;52.142;11.738;2022-08-14T13:00:05;8.57;;;7.68;;
67026;SDS011;53933;52.142;11.738;2022-08-14T13:02:39;8.25;;;7.45;;
67026;SDS011;53933;52.142;11.738;2022-08-14T13:05:06;10.55;;;7.85;;
67026;SDS011;53933;52.142;11.738;2022-08-14T13:07:34;8.70;;;7.90;;
67026;SDS011;53933;52.142;11.738;2022-08-14T13:10:04;10.93;;;8.10;;
67026;SDS011;53933;52.142;11.738;2022-08-14T13:12:31;8.43;;;7.63;;
67026;SDS011;53933;52.142;11.738;2022-08-14T13:14:59;8.52;;;7.72;;
67026;SDS011;53933;52.142;11.738;2022-08-14T13:17:27;9.25;;;7.53;;
67026;SDS011;53933;52.142;11.738;2022-08-14T13:19:54;8.85;;;8.02;;
67026;SDS011;53933;52.142;11.738;2022-08-14T13:22:22;8.18;;;7.40;;
67026;SDS011;53933;52.142;11.738;2022-08-14T13:24:51;8.77;;;7.95;;
67026;SDS011;53933;52.142;11.738;2022-08-14T13:27:18;9.35;;;7.93;;
67026;SDS011;53933;52.142;11.738;2022-08-14T13:29:47;8.05;;;7.28;;
67026;SDS011;53933;52.142;11.738;2022-08-14T13:32:16;8.73;;;7.93;;
67026;SDS011;53933;52.142;11.738;2022-08-14T13:34:46;8.23;;;7.40;;
67026;SDS011;53933;52.142;11.738;2022-08-14T13:37:14;8.38;;;7.57;;
67026;SDS011;53933;52.142;11.738;2022-08-14T13:39:43;8.85;;;7.95;;
67026;SDS011;53933;52.142;11.738;2022-08-14T13:42:12;8.10;;;7.40;;
67026;SDS011;53933;52.142;11.738;2022-08-14T13:44:40;8.90;;;8.00;;
67026;SDS011;53933;52.142;11.738;2022-08-14T13:47:07;7.63;;;6.93;;
67026;SDS011;53933;52.142;11.738;2022-08-14T13:49:33;9.15;;;8.15;;
67026;SDS011;53933;52.142;11.738;2022-08-14T13:52:03;8.25;;;7.55;;
67026;SDS011;53933;52.142;11.738;2022-08-14T13:54:30;8.90;;;8.10;;
67026;SDS011;53933;52.142;11.738;2022-08-14T13:56:59;8.15;;;7.38;;
67026;SDS011;53933;52.142;11.738;2022-08-14T13:59:27;11.18;;;8.00;;
67026;SDS011;53933;52.142;11.738;2022-08-14T14:01:56;10.13;;;7.63;;
67026;SDS011;53933;52.142;11.738;2022-08-14T14:04:27;8.77;;;7.97;;
67026;SDS011;53933;52.142;11.738;2022-08-14T14:06:55;8.77;;;7.85;;
67026;SDS011;53933;52.142;11.738;2022-08-14T14:09:29;8.10;;;7.40;;
67026;SDS011;53933;52.142;11.738;2022-08-14T14:11:57;12.43;;;8.18;;
67026;SDS011;53933;52.142;11.738;2022-08-14T14:14:24;12.30;;;8.50;;
67026;SDS011;53933;52.142;11.738;2022-08-14T14:16:51;8.95;;;8.05;;
67026;SDS011;53933;52.142;11.738;2022-08-14T14:19:18;7.95;;;7.20;;
67026;SDS011;53933;52.142;11.738;2022-08-14T14:21:48;8.70;;;7.90;;
67026;SDS011;53933;52.142;11.738;2022-08-14T14:24:15;9.13;;;8.23;;
67026;SDS011;53933;52.142;11.738;2022-08-14T14:26:45;8.80;;;7.63;;
67026;SDS011;53933;52.142;11.738;2022-08-14T14:29:12;8.65;;;7.82;;
67026;SDS011;53933;52.142;11.738;2022-08-14T14:31:39;12.23;;;7.80;;
67026;SDS011;53933;52.142;11.738;2022-08-14T14:34:07;8.93;;;7.97;;
67026;SDS011;53933;52.142;11.738;2022-08-14T14:36:34;7.88;;;7.18;;